sensor_id;sensor_type;location;lat;lon;timestamp;pressure;altitude;pressure_sealevel;temperature;humidity
31044;BME280;17710;52.520;13.352;2022-10-01T00:02:23;100731.63;;;14.69;52.72
31044;BME280;17710;52.520;13.352;2022-10-01T00:04:50;100727.59;;;14.78;52.72
31044;BME280;17710;52.520;13.352;2022-10-01T00:07:17;100730.53;;;14.73;52.88
31044;BME280;17710;52.520;13.352;2022-10-01T00:09:46;100717.06;;;14.77;52.78
31044;BME280;17710;52.520;13.352;2022-10-01T00:12:12;100721.59;;;14.74;52.70
31044;BME280;17710;52.520;13.352;2022-10-01T00:14:40;100720.09;;;14.86;52.57
31044;BME280;17710;52.520;13.352;2022-10-01T00:17:06;100714.50;;;14.75;52.67
31044;BME280;17710;52.520;13.352;2022-10-01T00:19:32;100708.84;;;14.64;53.07
31044;BME280;17710;52.520;13.352;2022-10-01T00:22:02;100713.09;;;14.68;52.85
31044;BME280;17710;52.520;13.352;2022-10-01T00:24:32;100711.13;;;14.71;53.00
31044;BME280;17710;52.520;13.352;2022-10-01T00:27:00;100715.03;;;14.64;52.82
31044;BME280;17710;52.520;13.352;2022-10-01T00:29:27;100719.66;;;14.61;53.11
31044;BME280;17710;52.520;13.352;2022-10-01T00:31:53;100715.50;;;14.72;52.90
31044;BME280;17710;52.520;13.352;2022-10-01T00:34:20;100710.97;;;14.57;53.09
31044;BME280;17710;52.520;13.352;2022-10-01T00:36:47;100706.97;;;14.66;52.96
31044;BME280;17710;52.520;13.352;2022-10-01T00:39:13;100713.34;;;14.46;53.43
31044;BME280;17710;52.520;13.352;2022-10-01T00:41:41;100704.56;;;14.61;53.13
31044;BME280;17710;52.520;13.352;2022-10-01T00:44:32;100699.50;;;14.57;53.60
31044;BME280;17710;52.520;13.352;2022-10-01T00:47:06;100696.13;;;14.53;53.53
31044;BME280;17710;52.520;13.352;2022-10-01T00:49:35;100694.63;;;14.65;53.21
31044;BME280;17710;52.520;13.352;2022-10-01T00:52:05;100688.44;;;14.64;53.18
31044;BME280;17710;52.520;13.352;2022-10-01T00:54:36;100687.81;;;14.77;52.66
31044;BME280;17710;52.520;13.352;2022-10-01T00:57:06;100688.75;;;14.75;52.78
31044;BME280;17710;52.520;13.352;2022-10-01T00:59:36;100689.31;;;14.65;53.09
31044;BME280;17710;52.520;13.352;2022-10-01T01:02:06;100684.00;;;14.65;52.97
31044;BME280;17710;52.520;13.352;2022-10-01T01:04:34;100686.00;;;14.77;52.80
31044;BME280;17710;52.520;13.352;2022-10-01T01:07:04;100685.38;;;14.72;52.88
31044;BME280;17710;52.520;13.352;2022-10-01T01:09:33;100684.38;;;14.57;53.16
31044;BME280;17710;52.520;13.352;2022-10-01T01:12:18;100689.47;;;14.62;53.17
31044;BME280;17710;52.520;13.352;2022-10-01T01:14:54;100674.38;;;14.62;53.15
31044;BME280;17710;52.520;13.352;2022-10-01T01:17:28;100679.53;;;14.31;54.09
31044;BME280;17710;52.520;13.352;2022-10-01T01:20:11;100684.84;;;14.65;53.14
31044;BME280;17710;52.520;13.352;2022-10-01T01:22:49;100677.13;;;14.61;53.29
31044;BME280;17710;52.520;13.352;2022-10-01T01:25:21;100679.72;;;14.62;53.36
31044;BME280;17710;52.520;13.352;2022-10-01T01:28:05;100676.31;;;14.43;53.55
31044;BME280;17710;52.520;13.352;2022-10-01T01:30:38;100673.66;;;14.43;53.88
31044;BME280;17710;52.520;13.352;2022-10-01T01:33:11;100668.34;;;14.59;53.50
31044;BME280;17710;52.520;13.352;2022-10-01T01:35:40;100669.88;;;14.47;53.76
31044;BME280;17710;52.520;13.352;2022-10-01T01:38:11;100662.34;;;14.55;53.44
31044;BME280;17710;52.520;13.352;2022-10-01T01:40:40;100657.19;;;14.52;53.58
31044;BME280;17710;52.520;13.352;2022-10-01T01:43:13;100650.88;;;14.20;54.48
31044;BME280;17710;52.520;13.352;2022-10-01T01:45:46;100652.38;;;14.43;53.90
31044;BME280;17710;52.520;13.352;2022-10-01T01:48:14;100651.25;;;14.47;53.60
31044;BME280;17710;52.520;13.352;2022-10-01T01:50:43;100640.31;;;14.36;53.70
31044;BME280;17710;52.520;13.352;2022-10-01T01:53:13;100642.25;;;14.32;54.08
31044;BME280;17710;52.520;13.352;2022-10-01T01:55:40;100647.34;;;14.37;54.17
31044;BME280;17710;52.520;13.352;2022-10-01T01:58:10;100640.25;;;14.20;54.54
31044;BME280;17710;52.520;13.352;2022-10-01T02:00:37;100638.91;;;14.29;54.39
31044;BME280;17710;52.520;13.352;2022-10-01T02:03:05;100633.06;;;14.22;54.51
31044;BME280;17710;52.520;13.352;2022-10-01T02:05:40;100639.56;;;14.17;54.68
31044;BME280;17710;52.520;13.352;2022-10-01T02:08:29;100647.53;;;14.17;54.77
31044;BME280;17710;52.520;13.352;2022-10-01T02:14:02;100641.50;;;14.30;54.55
31044;BME280;17710;52.520;13.352;2022-10-01T02:16:40;100641.34;;;13.99;55.31
31044;BME280;17710;52.520;13.352;2022-10-01T02:19:18;100639.25;;;14.23;54.68
31044;BME280;17710;52.520;13.352;2022-10-01T02:21:55;100643.22;;;14.14;54.83
31044;BME280;17710;52.520;13.352;2022-10-01T02:24:32;100639.78;;;14.29;54.60
31044;BME280;17710;52.520;13.352;2022-10-01T02:27:04;100639.78;;;14.29;54.48
31044;BME280;17710;52.520;13.352;2022-10-01T02:29:34;100632.44;;;14.17;54.80
31044;BME280;17710;52.520;13.352;2022-10-01T02:32:03;100640.16;;;14.05;55.23
31044;BME280;17710;52.520;13.352;2022-10-01T02:34:30;100652.84;;;14.00;55.49
31044;BME280;17710;52.520;13.352;2022-10-01T02:37:00;100647.75;;;13.95;55.51
31044;BME280;17710;52.520;13.352;2022-10-01T02:39:31;100641.81;;;13.73;56.11
31044;BME280;17710;52.520;13.352;2022-10-01T02:41:59;100640.34;;;14.02;55.29
31044;BME280;17710;52.520;13.352;2022-10-01T02:44:31;100636.03;;;13.99;55.38
31044;BME280;17710;52.520;13.352;2022-10-01T02:47:05;100631.75;;;13.96;55.30
31044;BME280;17710;52.520;13.352;2022-10-01T02:49:34;100627.44;;;13.94;55.12
31044;BME280;17710;52.520;13.352;2022-10-01T02:52:10;100629.47;;;13.89;55.38
31044;BME280;17710;52.520;13.352;2022-10-01T02:54:42;100624.53;;;13.98;55.13
31044;BME280;17710;52.520;13.352;2022-10-01T02:57:14;100625.25;;;14.02;55.06
31044;BME280;17710;52.520;13.352;2022-10-01T02:59:52;100619.41;;;13.95;55.07
31044;BME280;17710;52.520;13.352;2022-10-01T03:02:21;100624.72;;;13.78;55.61
31044;BME280;17710;52.520;13.352;2022-10-01T03:04:48;100618.53;;;13.61;56.05
31044;BME280;17710;52.520;13.352;2022-10-01T03:07:15;100628.16;;;13.80;55.43
31044;BME280;17710;52.520;13.352;2022-10-01T03:09:45;100625.00;;;13.72;55.52
31044;BME280;17710;52.520;13.352;2022-10-01T03:12:11;100619.13;;;13.48;56.18
31044;BME280;17710;52.520;13.352;2022-10-01T03:14:41;100612.44;;;13.76;55.48
31044;BME280;17710;52.520;13.352;2022-10-01T03:17:08;100603.94;;;13.69;55.49
31044;BME280;17710;52.520;13.352;2022-10-01T03:19:36;100603.38;;;13.80;55.09
31044;BME280;17710;52.520;13.352;2022-10-01T03:22:02;100604.31;;;13.79;55.16
31044;BME280;17710;52.520;13.352;2022-10-01T03:24:30;100601.50;;;13.82;54.71
31044;BME280;17710;52.520;13.352;2022-10-01T03:26:58;100599.09;;;13.94;54.47
31044;BME280;17710;52.520;13.352;2022-10-01T03:29:24;100596.88;;;13.85;54.57
31044;BME280;17710;52.520;13.352;2022-10-01T03:31:56;100594.88;;;13.90;54.37
31044;BME280;17710;52.520;13.352;2022-10-01T03:34:23;100595.66;;;14.10;53.77
31044;BME280;17710;52.520;13.352;2022-10-01T03:36:53;100586.75;;;13.93;54.23
31044;BME280;17710;52.520;13.352;2022-10-01T03:39:21;100582.06;;;13.81;54.53
31044;BME280;17710;52.520;13.352;2022-10-01T03:41:48;100579.72;;;13.75;54.71
31044;BME280;17710;52.520;13.352;2022-10-01T03:44:14;100573.56;;;13.75;54.82
31044;BME280;17710;52.520;13.352;2022-10-01T03:46:41;100565.34;;;13.79;54.53
31044;BME280;17710;52.520;13.352;2022-10-01T03:49:10;100572.66;;;13.91;54.42
31044;BME280;17710;52.520;13.352;2022-10-01T03:51:37;100564.16;;;13.85;54.46
31044;BME280;17710;52.520;13.352;2022-10-01T03:54:05;100560.91;;;13.63;54.81
31044;BME280;17710;52.520;13.352;2022-10-01T03:56:35;100558.19;;;13.64;54.72
31044;BME280;17710;52.520;13.352;2022-10-01T03:59:05;100569.72;;;13.63;54.96
31044;BME280;17710;52.520;13.352;2022-10-01T04:01:33;100560.53;;;13.70;54.71
31044;BME280;17710;52.520;13.352;2022-10-01T04:04:00;100562.78;;;13.43;55.47
31044;BME280;17710;52.520;13.352;2022-10-01T04:06:26;100554.13;;;13.57;55.05
31044;BME280;17710;52.520;13.352;2022-10-01T04:08:54;100557.53;;;13.59;54.91
31044;BME280;17710;52.520;13.352;2022-10-01T04:11:24;100560.44;;;13.72;54.52
31044;BME280;17710;52.520;13.352;2022-10-01T04:13:54;100558.63;;;13.72;54.22
31044;BME280;17710;52.520;13.352;2022-10-01T04:16:21;100558.94;;;13.66;54.54
31044;BME280;17710;52.520;13.352;2022-10-01T04:18:49;100559.44;;;13.57;54.58
31044;BME280;17710;52.520;13.352;2022-10-01T04:21:18;100557.53;;;13.76;54.13
31044;BME280;17710;52.520;13.352;2022-10-01T04:23:45;100552.25;;;13.76;54.42
31044;BME280;17710;52.520;13.352;2022-10-01T04:26:11;100549.75;;;13.56;54.57
31044;BME280;17710;52.520;13.352;2022-10-01T04:28:39;100544.19;;;13.61;54.60
31044;BME280;17710;52.520;13.352;2022-10-01T04:31:09;100544.88;;;13.47;54.96
31044;BME280;17710;52.520;13.352;2022-10-01T04:33:51;100543.81;;;13.51;54.67
31044;BME280;17710;52.520;13.352;2022-10-01T04:36:17;100546.16;;;13.57;54.69
31044;BME280;17710;52.520;13.352;2022-10-01T04:38:49;100543.25;;;13.62;54.41
31044;BME280;17710;52.520;13.352;2022-10-01T04:41:15;100548.31;;;13.66;54.41
31044;BME280;17710;52.520;13.352;2022-10-01T04:43:43;100536.84;;;13.48;54.84
31044;BME280;17710;52.520;13.352;2022-10-01T04:46:09;100546.38;;;13.35;55.00
31044;BME280;17710;52.520;13.352;2022-10-01T04:48:36;100543.94;;;13.31;55.30
31044;BME280;17710;52.520;13.352;2022-10-01T04:51:02;100536.84;;;13.31;55.36
31044;BME280;17710;52.520;13.352;2022-10-01T04:53:28;100541.44;;;13.28;55.17
31044;BME280;17710;52.520;13.352;2022-10-01T04:55:55;100537.22;;;13.41;55.22
31044;BME280;17710;52.520;13.352;2022-10-01T04:58:21;100534.56;;;13.41;55.04
31044;BME280;17710;52.520;13.352;2022-10-01T05:00:49;100533.34;;;13.65;54.28
31044;BME280;17710;52.520;13.352;2022-10-01T05:03:15;100530.28;;;13.55;54.30
31044;BME280;17710;52.520;13.352;2022-10-01T05:05:45;100523.50;;;13.67;54.16
31044;BME280;17710;52.520;13.352;2022-10-01T05:08:12;100516.00;;;13.75;53.78
31044;BME280;17710;52.520;13.352;2022-10-01T05:10:39;100521.31;;;13.75;53.87
31044;BME280;17710;52.520;13.352;2022-10-01T05:13:06;100526.22;;;13.48;54.49
31044;BME280;17710;52.520;13.352;2022-10-01T05:15:34;100525.06;;;13.54;54.63
31044;BME280;17710;52.520;13.352;2022-10-01T05:18:02;100524.75;;;13.26;55.35
31044;BME280;17710;52.520;13.352;2022-10-01T05:20:30;100532.47;;;13.30;55.47
31044;BME280;17710;52.520;13.352;2022-10-01T05:22:58;100521.38;;;13.39;54.95
31044;BME280;17710;52.520;13.352;2022-10-01T05:25:24;100525.53;;;13.45;54.82
31044;BME280;17710;52.520;13.352;2022-10-01T05:27:58;100521.16;;;13.61;54.23
31044;BME280;17710;52.520;13.352;2022-10-01T05:30:29;100515.31;;;13.72;54.18
31044;BME280;17710;52.520;13.352;2022-10-01T05:32:57;100515.19;;;13.73;53.95
31044;BME280;17710;52.520;13.352;2022-10-01T05:35:26;100514.28;;;13.57;54.36
31044;BME280;17710;52.520;13.352;2022-10-01T05:37:57;100516.69;;;13.62;54.53
31044;BME280;17710;52.520;13.352;2022-10-01T05:40:26;100513.66;;;13.69;54.29
31044;BME280;17710;52.520;13.352;2022-10-01T05:42:54;100507.72;;;13.64;54.27
31044;BME280;17710;52.520;13.352;2022-10-01T05:45:23;100500.06;;;13.75;54.12
31044;BME280;17710;52.520;13.352;2022-10-01T05:47:56;100490.97;;;13.79;53.98
31044;BME280;17710;52.520;13.352;2022-10-01T05:50:23;100496.72;;;13.72;54.10
31044;BME280;17710;52.520;13.352;2022-10-01T05:52:52;100494.44;;;13.81;53.89
31044;BME280;17710;52.520;13.352;2022-10-01T05:55:19;100488.00;;;13.85;53.73
31044;BME280;17710;52.520;13.352;2022-10-01T05:57:52;100482.41;;;13.74;54.00
31044;BME280;17710;52.520;13.352;2022-10-01T06:00:20;100475.09;;;13.95;53.73
31044;BME280;17710;52.520;13.352;2022-10-01T06:02:49;100476.75;;;13.98;53.54
31044;BME280;17710;52.520;13.352;2022-10-01T06:05:16;100461.41;;;14.18;52.92
31044;BME280;17710;52.520;13.352;2022-10-01T06:07:42;100467.25;;;14.09;53.17
31044;BME280;17710;52.520;13.352;2022-10-01T06:10:10;100458.34;;;14.10;53.32
31044;BME280;17710;52.520;13.352;2022-10-01T06:12:36;100455.31;;;14.01;53.40
31044;BME280;17710;52.520;13.352;2022-10-01T06:15:03;100460.22;;;14.08;53.47
31044;BME280;17710;52.520;13.352;2022-10-01T06:17:30;100457.31;;;14.28;52.93
31044;BME280;17710;52.520;13.352;2022-10-01T06:19:56;100443.78;;;14.33;53.00
31044;BME280;17710;52.520;13.352;2022-10-01T06:22:23;100446.97;;;14.24;53.06
31044;BME280;17710;52.520;13.352;2022-10-01T06:24:52;100447.78;;;14.09;53.52
31044;BME280;17710;52.520;13.352;2022-10-01T06:27:20;100445.03;;;14.43;52.70
31044;BME280;17710;52.520;13.352;2022-10-01T06:29:47;100439.38;;;14.49;52.68
31044;BME280;17710;52.520;13.352;2022-10-01T06:32:13;100445.84;;;14.59;52.42
31044;BME280;17710;52.520;13.352;2022-10-01T06:34:44;100438.81;;;14.58;52.30
31044;BME280;17710;52.520;13.352;2022-10-01T06:37:10;100435.13;;;14.45;52.56
31044;BME280;17710;52.520;13.352;2022-10-01T06:39:38;100435.66;;;14.52;52.63
31044;BME280;17710;52.520;13.352;2022-10-01T06:42:04;100432.84;;;14.39;52.68
31044;BME280;17710;52.520;13.352;2022-10-01T06:44:32;100436.88;;;14.62;52.45
31044;BME280;17710;52.520;13.352;2022-10-01T06:47:00;100438.31;;;14.67;52.16
31044;BME280;17710;52.520;13.352;2022-10-01T06:49:27;100433.78;;;14.69;52.13
31044;BME280;17710;52.520;13.352;2022-10-01T06:51:54;100420.88;;;14.77;51.86
31044;BME280;17710;52.520;13.352;2022-10-01T06:54:38;100421.94;;;14.59;52.46
31044;BME280;17710;52.520;13.352;2022-10-01T06:57:04;100413.53;;;14.51;52.71
31044;BME280;17710;52.520;13.352;2022-10-01T06:59:33;100408.53;;;14.77;52.18
31044;BME280;17710;52.520;13.352;2022-10-01T07:02:01;100407.06;;;14.71;52.44
31044;BME280;17710;52.520;13.352;2022-10-01T07:04:27;100395.84;;;14.66;52.51
31044;BME280;17710;52.520;13.352;2022-10-01T07:06:54;100393.59;;;14.74;52.01
31044;BME280;17710;52.520;13.352;2022-10-01T07:09:22;100403.81;;;14.82;52.19
31044;BME280;17710;52.520;13.352;2022-10-01T07:11:50;100393.75;;;14.87;52.37
31044;BME280;17710;52.520;13.352;2022-10-01T07:14:18;100392.03;;;14.86;52.34
31044;BME280;17710;52.520;13.352;2022-10-01T07:16:46;100393.09;;;14.97;52.14
31044;BME280;17710;52.520;13.352;2022-10-01T07:19:13;100387.56;;;14.86;52.41
31044;BME280;17710;52.520;13.352;2022-10-01T07:21:39;100389.22;;;14.73;52.68
31044;BME280;17710;52.520;13.352;2022-10-01T07:24:06;100382.66;;;14.94;52.45
31044;BME280;17710;52.520;13.352;2022-10-01T07:26:32;100373.03;;;14.92;52.07
31044;BME280;17710;52.520;13.352;2022-10-01T07:28:59;100366.81;;;15.07;51.93
31044;BME280;17710;52.520;13.352;2022-10-01T07:31:25;100369.81;;;14.87;52.64
31044;BME280;17710;52.520;13.352;2022-10-01T07:33:56;100364.56;;;15.15;52.07
31044;BME280;17710;52.520;13.352;2022-10-01T07:36:23;100348.28;;;15.05;52.15
31044;BME280;17710;52.520;13.352;2022-10-01T07:38:49;100349.66;;;14.97;52.90
31044;BME280;17710;52.520;13.352;2022-10-01T07:41:20;100349.34;;;15.31;51.88
31044;BME280;17710;52.520;13.352;2022-10-01T07:43:49;100344.00;;;15.17;52.16
31044;BME280;17710;52.520;13.352;2022-10-01T07:46:15;100337.66;;;15.20;52.09
31044;BME280;17710;52.520;13.352;2022-10-01T07:48:51;100341.59;;;15.42;51.67
31044;BME280;17710;52.520;13.352;2022-10-01T07:51:21;100331.59;;;15.46;51.51
31044;BME280;17710;52.520;13.352;2022-10-01T07:53:56;100333.41;;;15.74;51.05
31044;BME280;17710;52.520;13.352;2022-10-01T07:56:28;100332.47;;;15.61;51.47
31044;BME280;17710;52.520;13.352;2022-10-01T07:58:58;100326.69;;;15.54;51.37
31044;BME280;17710;52.520;13.352;2022-10-01T08:01:25;100330.63;;;15.75;50.89
31044;BME280;17710;52.520;13.352;2022-10-01T08:03:55;100316.50;;;15.75;51.06
31044;BME280;17710;52.520;13.352;2022-10-01T08:06:42;100313.16;;;15.71;51.18
31044;BME280;17710;52.520;13.352;2022-10-01T08:09:18;100311.22;;;15.87;50.94
31044;BME280;17710;52.520;13.352;2022-10-01T08:11:48;100316.78;;;16.11;50.45
31044;BME280;17710;52.520;13.352;2022-10-01T08:14:16;100310.53;;;16.25;49.87
31044;BME280;17710;52.520;13.352;2022-10-01T08:16:44;100306.25;;;16.22;49.99
31044;BME280;17710;52.520;13.352;2022-10-01T08:19:16;100301.94;;;16.34;49.84
31044;BME280;17710;52.520;13.352;2022-10-01T08:21:44;100298.34;;;16.48;49.75
31044;BME280;17710;52.520;13.352;2022-10-01T08:24:14;100292.38;;;16.44;49.31
31044;BME280;17710;52.520;13.352;2022-10-01T08:26:44;100289.00;;;16.28;50.11
31044;BME280;17710;52.520;13.352;2022-10-01T08:29:10;100286.19;;;16.44;49.78
31044;BME280;17710;52.520;13.352;2022-10-01T08:31:41;100285.50;;;16.27;49.93
31044;BME280;17710;52.520;13.352;2022-10-01T08:34:10;100295.31;;;16.27;50.00
31044;BME280;17710;52.520;13.352;2022-10-01T08:36:41;100281.72;;;16.57;49.54
31044;BME280;17710;52.520;13.352;2022-10-01T08:39:12;100282.72;;;16.68;48.90
31044;BME280;17710;52.520;13.352;2022-10-01T08:41:52;100278.78;;;16.61;49.34
31044;BME280;17710;52.520;13.352;2022-10-01T08:44:27;100279.16;;;16.55;49.64
31044;BME280;17710;52.520;13.352;2022-10-01T08:47:05;100280.84;;;16.83;49.02
31044;BME280;17710;52.520;13.352;2022-10-01T08:49:40;100270.50;;;16.79;49.09
31044;BME280;17710;52.520;13.352;2022-10-01T08:52:14;100277.13;;;16.86;48.63
31044;BME280;17710;52.520;13.352;2022-10-01T08:54:53;100273.59;;;16.85;48.93
31044;BME280;17710;52.520;13.352;2022-10-01T08:57:40;100270.59;;;16.90;48.79
31044;BME280;17710;52.520;13.352;2022-10-01T09:00:11;100271.69;;;17.12;48.21
31044;BME280;17710;52.520;13.352;2022-10-01T09:02:43;100260.25;;;17.10;48.08
31044;BME280;17710;52.520;13.352;2022-10-01T09:05:20;100252.25;;;17.10;48.24
31044;BME280;17710;52.520;13.352;2022-10-01T09:07:57;100245.63;;;16.91;48.33
31044;BME280;17710;52.520;13.352;2022-10-01T09:10:40;100238.53;;;17.28;47.85
31044;BME280;17710;52.520;13.352;2022-10-01T09:13:27;100242.06;;;17.41;47.17
31044;BME280;17710;52.520;13.352;2022-10-01T09:16:09;100230.19;;;17.45;46.81
31044;BME280;17710;52.520;13.352;2022-10-01T09:18:49;100226.22;;;17.63;46.41
31044;BME280;17710;52.520;13.352;2022-10-01T09:21:23;100222.34;;;17.54;46.71
31044;BME280;17710;52.520;13.352;2022-10-01T09:24:01;100209.63;;;17.09;47.28
31044;BME280;17710;52.520;13.352;2022-10-01T09:26:31;100203.88;;;17.64;46.69
31044;BME280;17710;52.520;13.352;2022-10-01T09:29:02;100200.94;;;18.04;45.62
31044;BME280;17710;52.520;13.352;2022-10-01T09:31:49;100193.69;;;17.93;45.75
31044;BME280;17710;52.520;13.352;2022-10-01T09:34:25;100197.94;;;17.84;45.84
31044;BME280;17710;52.520;13.352;2022-10-01T09:37:04;100192.00;;;17.92;45.80
31044;BME280;17710;52.520;13.352;2022-10-01T09:39:42;100194.22;;;17.74;46.15
31044;BME280;17710;52.520;13.352;2022-10-01T09:42:14;100188.13;;;17.72;46.42
31044;BME280;17710;52.520;13.352;2022-10-01T09:44:44;100191.25;;;17.53;46.93
31044;BME280;17710;52.520;13.352;2022-10-01T09:47:18;100197.75;;;17.75;46.97
31044;BME280;17710;52.520;13.352;2022-10-01T09:49:51;100191.03;;;17.69;46.97
31044;BME280;17710;52.520;13.352;2022-10-01T09:52:23;100182.09;;;17.58;47.20
31044;BME280;17710;52.520;13.352;2022-10-01T09:54:57;100168.88;;;17.43;47.94
31044;BME280;17710;52.520;13.352;2022-10-01T09:57:33;100173.44;;;17.18;49.28
31044;BME280;17710;52.520;13.352;2022-10-01T10:00:09;100168.84;;;17.20;49.55
31044;BME280;17710;52.520;13.352;2022-10-01T10:02:41;100167.03;;;17.07;49.99
31044;BME280;17710;52.520;13.352;2022-10-01T10:05:13;100169.38;;;17.12;50.28
31044;BME280;17710;52.520;13.352;2022-10-01T10:07:46;100157.97;;;17.10;50.64
31044;BME280;17710;52.520;13.352;2022-10-01T10:10:18;100158.44;;;17.28;50.58
31044;BME280;17710;52.520;13.352;2022-10-01T10:12:54;100164.91;;;16.87;51.21
31044;BME280;17710;52.520;13.352;2022-10-01T10:15:22;100158.97;;;16.84;51.76
31044;BME280;17710;52.520;13.352;2022-10-01T10:17:51;100156.38;;;16.95;52.39
31044;BME280;17710;52.520;13.352;2022-10-01T10:20:23;100162.25;;;16.74;52.37
31044;BME280;17710;52.520;13.352;2022-10-01T10:22:51;100162.81;;;16.80;53.32
31044;BME280;17710;52.520;13.352;2022-10-01T10:25:21;100162.59;;;16.70;54.13
31044;BME280;17710;52.520;13.352;2022-10-01T10:27:51;100153.34;;;16.23;55.40
31044;BME280;17710;52.520;13.352;2022-10-01T10:30:20;100156.38;;;16.44;56.21
31044;BME280;17710;52.520;13.352;2022-10-01T10:32:51;100150.22;;;16.69;55.47
31044;BME280;17710;52.520;13.352;2022-10-01T10:35:29;100155.13;;;16.62;55.72
31044;BME280;17710;52.520;13.352;2022-10-01T10:37:56;100150.19;;;16.56;56.34
31044;BME280;17710;52.520;13.352;2022-10-01T10:40:24;100157.00;;;16.48;56.56
31044;BME280;17710;52.520;13.352;2022-10-01T10:42:55;100155.41;;;16.32;57.42
31044;BME280;17710;52.520;13.352;2022-10-01T10:45:29;100148.47;;;16.30;58.46
31044;BME280;17710;52.520;13.352;2022-10-01T10:48:02;100138.66;;;16.43;58.34
31044;BME280;17710;52.520;13.352;2022-10-01T10:50:31;100133.91;;;15.96;59.10
31044;BME280;17710;52.520;13.352;2022-10-01T10:53:02;100139.50;;;16.31;58.63
31044;BME280;17710;52.520;13.352;2022-10-01T10:55:36;100134.28;;;16.29;58.58
31044;BME280;17710;52.520;13.352;2022-10-01T10:58:13;100127.22;;;16.28;59.36
31044;BME280;17710;52.520;13.352;2022-10-01T11:00:44;100137.50;;;15.95;59.23
31044;BME280;17710;52.520;13.352;2022-10-01T11:03:13;100128.91;;;16.04;60.15
31044;BME280;17710;52.520;13.352;2022-10-01T11:05:41;100131.13;;;15.98;60.84
31044;BME280;17710;52.520;13.352;2022-10-01T11:08:17;100137.13;;;16.01;60.27
31044;BME280;17710;52.520;13.352;2022-10-01T11:10:50;100136.19;;;15.75;60.74
31044;BME280;17710;52.520;13.352;2022-10-01T11:13:34;100128.03;;;15.91;61.47
31044;BME280;17710;52.520;13.352;2022-10-01T11:16:21;100124.28;;;15.81;61.76
31044;BME280;17710;52.520;13.352;2022-10-01T11:19:04;100123.25;;;16.09;60.69
31044;BME280;17710;52.520;13.352;2022-10-01T11:21:46;100122.81;;;16.02;60.93
31044;BME280;17710;52.520;13.352;2022-10-01T11:24:22;100118.16;;;16.06;60.61
31044;BME280;17710;52.520;13.352;2022-10-01T11:26:57;100114.09;;;16.00;60.97
31044;BME280;17710;52.520;13.352;2022-10-01T11:29:37;100116.63;;;16.02;60.90
31044;BME280;17710;52.520;13.352;2022-10-01T11:32:16;100103.84;;;15.94;60.96
31044;BME280;17710;52.520;13.352;2022-10-01T11:40:48;100102.84;;;16.72;58.27
31044;BME280;17710;52.520;13.352;2022-10-01T11:43:20;100106.22;;;16.37;59.47
31044;BME280;17710;52.520;13.352;2022-10-01T11:45:54;100098.47;;;16.33;58.97
31044;BME280;17710;52.520;13.352;2022-10-01T11:48:25;100095.38;;;16.14;60.05
31044;BME280;17710;52.520;13.352;2022-10-01T11:50:57;100095.47;;;16.25;59.85
31044;BME280;17710;52.520;13.352;2022-10-01T11:53:28;100104.63;;;16.21;59.81
31044;BME280;17710;52.520;13.352;2022-10-01T11:56:00;100104.09;;;16.16;59.94
31044;BME280;17710;52.520;13.352;2022-10-01T11:58:50;100100.09;;;15.97;60.68
31044;BME280;17710;52.520;13.352;2022-10-01T12:01:32;100088.41;;;15.99;60.45
31044;BME280;17710;52.520;13.352;2022-10-01T12:04:10;100092.03;;;15.98;60.58
31044;BME280;17710;52.520;13.352;2022-10-01T12:06:44;100089.91;;;16.16;60.01
31044;BME280;17710;52.520;13.352;2022-10-01T12:09:19;100096.00;;;16.30;59.60
31044;BME280;17710;52.520;13.352;2022-10-01T12:11:55;100089.81;;;16.30;59.15
31044;BME280;17710;52.520;13.352;2022-10-01T12:14:31;100077.00;;;16.22;59.27
31044;BME280;17710;52.520;13.352;2022-10-01T12:17:10;100087.47;;;16.25;58.96
31044;BME280;17710;52.520;13.352;2022-10-01T12:19:47;100089.28;;;16.38;59.08
31044;BME280;17710;52.520;13.352;2022-10-01T12:22:17;100091.50;;;16.44;58.98
31044;BME280;17710;52.520;13.352;2022-10-01T12:24:50;100092.81;;;16.25;59.66
31044;BME280;17710;52.520;13.352;2022-10-01T12:27:44;100102.09;;;16.45;59.22
31044;BME280;17710;52.520;13.352;2022-10-01T12:30:16;100094.94;;;16.20;60.62
31044;BME280;17710;52.520;13.352;2022-10-01T12:33:00;100092.13;;;16.22;61.23
31044;BME280;17710;52.520;13.352;2022-10-01T12:35:44;100095.13;;;16.30;60.75
31044;BME280;17710;52.520;13.352;2022-10-01T12:38:24;100097.28;;;16.38;60.75
31044;BME280;17710;52.520;13.352;2022-10-01T12:40:57;100092.47;;;16.30;61.03
31044;BME280;17710;52.520;13.352;2022-10-01T12:43:39;100092.47;;;16.30;61.46
31044;BME280;17710;52.520;13.352;2022-10-01T12:46:17;100095.03;;;16.06;62.35
31044;BME280;17710;52.520;13.352;2022-10-01T12:48:54;100085.09;;;16.08;62.63
31044;BME280;17710;52.520;13.352;2022-10-01T12:51:37;100085.09;;;16.08;62.42
31044;BME280;17710;52.520;13.352;2022-10-01T12:54:15;100083.84;;;16.01;62.69
31044;BME280;17710;52.520;13.352;2022-10-01T12:56:48;100082.13;;;16.25;61.66
31044;BME280;17710;52.520;13.352;2022-10-01T12:59:39;100084.47;;;16.17;62.46
31044;BME280;17710;52.520;13.352;2022-10-01T13:02:27;100084.47;;;16.17;62.89
31044;BME280;17710;52.520;13.352;2022-10-01T13:05:12;100083.53;;;16.31;62.19
31044;BME280;17710;52.520;13.352;2022-10-01T13:07:51;100082.56;;;16.45;61.72
31044;BME280;17710;52.520;13.352;2022-10-01T13:10:36;100086.41;;;16.53;61.36
31044;BME280;17710;52.520;13.352;2022-10-01T13:13:11;100078.50;;;16.52;61.48